sensor_id;sensor_type;location;lat;lon;timestamp;P1;durP1;ratioP1;P2;durP2;ratioP2
52438;SDS011;38359;53.150;6.504;2023-04-15T00:07:04;15.77;;;5.95;;
52438;SDS011;38359;53.150;6.504;2023-04-15T00:17:30;18.58;;;6.82;;
52438;SDS011;38359;53.150;6.504;2023-04-15T00:27:56;21.88;;;7.95;;
52438;SDS011;38359;53.150;6.504;2023-04-15T00:38:22;23.73;;;9.18;;
52438;SDS011;38359;53.150;6.504;2023-04-15T00:48:47;19.17;;;8.52;;
52438;SDS011;38359;53.150;6.504;2023-04-15T00:59:14;20.67;;;10.07;;
52438;SDS011;38359;53.150;6.504;2023-04-15T01:09:41;21.75;;;10.90;;
52438;SDS011;38359;53.150;6.504;2023-04-15T01:20:07;20.58;;;10.60;;
52438;SDS011;38359;53.150;6.504;2023-04-15T01:30:36;21.15;;;11.98;;
52438;SDS011;38359;53.150;6.504;2023-04-15T01:41:02;22.85;;;11.43;;
52438;SDS011;38359;53.150;6.504;2023-04-15T01:51:30;21.52;;;11.75;;
52438;SDS011;38359;53.150;6.504;2023-04-15T02:01:56;30.08;;;11.85;;
52438;SDS011;38359;53.150;6.504;2023-04-15T02:12:22;22.90;;;11.57;;
52438;SDS011;38359;53.150;6.504;2023-04-15T02:22:48;25.17;;;11.88;;
52438;SDS011;38359;53.150;6.504;2023-04-15T02:33:14;27.00;;;12.25;;
52438;SDS011;38359;53.150;6.504;2023-04-15T02:43:40;24.55;;;12.63;;
52438;SDS011;38359;53.150;6.504;2023-04-15T02:54:06;21.52;;;12.18;;
52438;SDS011;38359;53.150;6.504;2023-04-15T03:04:32;23.23;;;13.25;;
52438;SDS011;38359;53.150;6.504;2023-04-15T03:14:58;27.15;;;14.05;;
52438;SDS011;38359;53.150;6.504;2023-04-15T03:25:26;27.55;;;14.65;;
52438;SDS011;38359;53.150;6.504;2023-04-15T03:35:52;30.23;;;16.67;;
52438;SDS011;38359;53.150;6.504;2023-04-15T03:46:17;31.33;;;17.63;;
52438;SDS011;38359;53.150;6.504;2023-04-15T03:56:43;31.08;;;17.00;;
52438;SDS011;38359;53.150;6.504;2023-04-15T04:07:13;32.38;;;18.65;;
52438;SDS011;38359;53.150;6.504;2023-04-15T04:17:40;32.15;;;17.52;;
52438;SDS011;38359;53.150;6.504;2023-04-15T04:28:06;29.58;;;18.83;;
52438;SDS011;38359;53.150;6.504;2023-04-15T04:38:32;34.28;;;21.05;;
52438;SDS011;38359;53.150;6.504;2023-04-15T04:48:58;41.90;;;21.27;;
52438;SDS011;38359;53.150;6.504;2023-04-15T04:59:24;34.92;;;19.75;;
52438;SDS011;38359;53.150;6.504;2023-04-15T05:09:49;36.83;;;20.42;;
52438;SDS011;38359;53.150;6.504;2023-04-15T05:20:15;40.65;;;21.90;;
52438;SDS011;38359;53.150;6.504;2023-04-15T05:30:41;42.35;;;22.48;;
52438;SDS011;38359;53.150;6.504;2023-04-15T05:41:07;33.83;;;20.45;;
52438;SDS011;38359;53.150;6.504;2023-04-15T05:51:33;36.13;;;20.77;;
52438;SDS011;38359;53.150;6.504;2023-04-15T06:01:59;34.03;;;21.25;;
52438;SDS011;38359;53.150;6.504;2023-04-15T06:12:25;38.63;;;20.95;;
52438;SDS011;38359;53.150;6.504;2023-04-15T06:22:52;37.42;;;21.35;;
52438;SDS011;38359;53.150;6.504;2023-04-15T06:33:18;35.85;;;19.63;;
52438;SDS011;38359;53.150;6.504;2023-04-15T06:43:44;31.65;;;17.50;;
52438;SDS011;38359;53.150;6.504;2023-04-15T06:54:10;46.35;;;17.83;;
52438;SDS011;38359;53.150;6.504;2023-04-15T07:04:36;32.03;;;17.08;;
52438;SDS011;38359;53.150;6.504;2023-04-15T07:15:02;31.48;;;16.45;;
52438;SDS011;38359;53.150;6.504;2023-04-15T07:25:28;26.80;;;14.10;;
52438;SDS011;38359;53.150;6.504;2023-04-15T07:35:54;25.00;;;11.93;;
52438;SDS011;38359;53.150;6.504;2023-04-15T07:46:20;18.58;;;10.20;;
52438;SDS011;38359;53.150;6.504;2023-04-15T07:56:48;15.52;;;8.95;;
52438;SDS011;38359;53.150;6.504;2023-04-15T08:07:14;16.20;;;7.63;;
52438;SDS011;38359;53.150;6.504;2023-04-15T08:17:40;17.42;;;8.40;;
52438;SDS011;38359;53.150;6.504;2023-04-15T08:28:06;15.00;;;6.82;;
52438;SDS011;38359;53.150;6.504;2023-04-15T08:38:33;8.35;;;5.50;;
52438;SDS011;38359;53.150;6.504;2023-04-15T08:49:02;16.35;;;4.78;;
52438;SDS011;38359;53.150;6.504;2023-04-15T08:59:29;14.13;;;4.05;;
52438;SDS011;38359;53.150;6.504;2023-04-15T09:09:55;11.93;;;2.83;;
52438;SDS011;38359;53.150;6.504;2023-04-15T09:20:21;9.30;;;3.63;;
52438;SDS011;38359;53.150;6.504;2023-04-15T09:30:48;12.75;;;3.47;;
52438;SDS011;38359;53.150;6.504;2023-04-15T09:41:19;8.25;;;2.65;;
52438;SDS011;38359;53.150;6.504;2023-04-15T09:51:45;10.80;;;3.13;;
52438;SDS011;38359;53.150;6.504;2023-04-15T10:02:11;9.82;;;2.40;;
52438;SDS011;38359;53.150;6.504;2023-04-15T10:12:38;3.25;;;1.80;;
52438;SDS011;38359;53.150;6.504;2023-04-15T10:23:06;5.78;;;1.98;;
52438;SDS011;38359;53.150;6.504;2023-04-15T10:33:33;12.10;;;2.30;;
52438;SDS011;38359;53.150;6.504;2023-04-15T10:44:00;10.55;;;2.53;;
52438;SDS011;38359;53.150;6.504;2023-04-15T11:04:57;10.15;;;3.85;;
52438;SDS011;38359;53.150;6.504;2023-04-15T11:26:05;7.28;;;2.50;;
52438;SDS011;38359;53.150;6.504;2023-04-15T11:36:33;9.30;;;2.20;;
52438;SDS011;38359;53.150;6.504;2023-04-15T11:46:59;8.25;;;2.33;;
52438;SDS011;38359;53.150;6.504;2023-04-15T11:57:30;11.98;;;2.30;;
52438;SDS011;38359;53.150;6.504;2023-04-15T12:07:56;16.70;;;2.33;;
52438;SDS011;38359;53.150;6.504;2023-04-15T12:18:23;16.45;;;2.33;;
52438;SDS011;38359;53.150;6.504;2023-04-15T12:28:52;16.05;;;2.35;;
52438;SDS011;38359;53.150;6.504;2023-04-15T12:39:26;19.55;;;2.60;;
52438;SDS011;38359;53.150;6.504;2023-04-15T12:49:55;18.70;;;2.85;;
52438;SDS011;38359;53.150;6.504;2023-04-15T13:00:23;15.82;;;2.65;;
52438;SDS011;38359;53.150;6.504;2023-04-15T13:10:49;11.80;;;1.95;;
52438;SDS011;38359;53.150;6.504;2023-04-15T13:21:15;16.77;;;2.55;;
52438;SDS011;38359;53.150;6.504;2023-04-15T13:31:41;14.75;;;2.42;;
52438;SDS011;38359;53.150;6.504;2023-04-15T13:42:08;13.43;;;2.55;;
52438;SDS011;38359;53.150;6.504;2023-04-15T13:52:34;20.85;;;2.92;;
52438;SDS011;38359;53.150;6.504;2023-04-15T14:03:00;16.55;;;2.97;;
52438;SDS011;38359;53.150;6.504;2023-04-15T14:13:25;18.48;;;3.17;;
52438;SDS011;38359;53.150;6.504;2023-04-15T14:23:51;24.90;;;3.20;;
52438;SDS011;38359;53.150;6.504;2023-04-15T14:34:17;16.83;;;4.35;;
52438;SDS011;38359;53.150;6.504;2023-04-15T14:44:43;22.85;;;3.33;;
52438;SDS011;38359;53.150;6.504;2023-04-15T14:55:10;24.73;;;2.75;;
52438;SDS011;38359;53.150;6.504;2023-04-15T15:05:40;19.30;;;3.67;;
52438;SDS011;38359;53.150;6.504;2023-04-15T15:16:06;16.17;;;3.25;;
52438;SDS011;38359;53.150;6.504;2023-04-15T15:26:33;26.63;;;3.88;;
52438;SDS011;38359;53.150;6.504;2023-04-15T15:36:59;28.95;;;4.13;;
52438;SDS011;38359;53.150;6.504;2023-04-15T15:47:25;24.50;;;4.50;;
52438;SDS011;38359;53.150;6.504;2023-04-15T15:57:50;36.17;;;8.95;;
52438;SDS011;38359;53.150;6.504;2023-04-15T16:08:17;39.28;;;5.13;;
52438;SDS011;38359;53.150;6.504;2023-04-15T16:18:44;45.00;;;5.47;;
52438;SDS011;38359;53.150;6.504;2023-04-15T16:29:09;35.03;;;5.43;;
52438;SDS011;38359;53.150;6.504;2023-04-15T16:39:35;36.67;;;5.35;;
52438;SDS011;38359;53.150;6.504;2023-04-15T16:50:01;36.97;;;6.88;;
52438;SDS011;38359;53.150;6.504;2023-04-15T17:00:27;38.35;;;6.07;;
52438;SDS011;38359;53.150;6.504;2023-04-15T17:10:53;49.10;;;5.85;;
52438;SDS011;38359;53.150;6.504;2023-04-15T17:21:19;44.75;;;6.95;;
52438;SDS011;38359;53.150;6.504;2023-04-15T17:31:45;46.95;;;6.95;;
52438;SDS011;38359;53.150;6.504;2023-04-15T17:42:11;44.60;;;6.30;;
52438;SDS011;38359;53.150;6.504;2023-04-15T17:52:37;46.05;;;7.75;;
52438;SDS011;38359;53.150;6.504;2023-04-15T18:03:03;51.28;;;8.88;;
52438;SDS011;38359;53.150;6.504;2023-04-15T18:13:29;58.08;;;8.70;;
52438;SDS011;38359;53.150;6.504;2023-04-15T18:23:55;42.22;;;8.35;;
52438;SDS011;38359;53.150;6.504;2023-04-15T18:34:20;54.33;;;8.25;;
52438;SDS011;38359;53.150;6.504;2023-04-15T18:44:46;57.53;;;10.85;;
52438;SDS011;38359;53.150;6.504;2023-04-15T18:55:13;59.83;;;12.05;;
52438;SDS011;38359;53.150;6.504;2023-04-15T19:05:38;56.97;;;12.57;;
52438;SDS011;38359;53.150;6.504;2023-04-15T19:16:04;76.38;;;15.00;;
52438;SDS011;38359;53.150;6.504;2023-04-15T19:26:30;72.07;;;15.85;;
52438;SDS011;38359;53.150;6.504;2023-04-15T19:36:56;83.75;;;17.95;;
52438;SDS011;38359;53.150;6.504;2023-04-15T19:47:22;89.00;;;21.20;;
52438;SDS011;38359;53.150;6.504;2023-04-15T19:57:47;128.07;;;45.22;;
52438;SDS011;38359;53.150;6.504;2023-04-15T20:08:13;106.57;;;24.88;;
52438;SDS011;38359;53.150;6.504;2023-04-15T20:18:39;135.65;;;28.95;;
52438;SDS011;38359;53.150;6.504;2023-04-15T20:29:05;170.32;;;33.05;;
52438;SDS011;38359;53.150;6.504;2023-04-15T20:39:32;190.35;;;35.63;;
52438;SDS011;38359;53.150;6.504;2023-04-15T20:49:58;190.73;;;37.78;;
52438;SDS011;38359;53.150;6.504;2023-04-15T21:00:24;175.40;;;35.47;;
52438;SDS011;38359;53.150;6.504;2023-04-15T21:10:50;161.43;;;36.13;;
52438;SDS011;38359;53.150;6.504;2023-04-15T21:21:16;191.85;;;42.78;;
52438;SDS011;38359;53.150;6.504;2023-04-15T21:31:41;199.25;;;42.50;;
52438;SDS011;38359;53.150;6.504;2023-04-15T21:42:07;191.43;;;43.70;;
52438;SDS011;38359;53.150;6.504;2023-04-15T21:52:33;221.93;;;41.67;;
52438;SDS011;38359;53.150;6.504;2023-04-15T22:02:59;199.85;;;42.75;;
52438;SDS011;38359;53.150;6.504;2023-04-15T22:13:24;196.27;;;42.70;;
52438;SDS011;38359;53.150;6.504;2023-04-15T22:23:50;234.25;;;44.22;;
52438;SDS011;38359;53.150;6.504;2023-04-15T22:34:17;205.63;;;45.03;;
52438;SDS011;38359;53.150;6.504;2023-04-15T22:44:45;208.38;;;48.88;;
52438;SDS011;38359;53.150;6.504;2023-04-15T22:55:11;192.18;;;48.53;;
52438;SDS011;38359;53.150;6.504;2023-04-15T23:05:36;184.38;;;48.55;;
52438;SDS011;38359;53.150;6.504;2023-04-15T23:16:04;181.35;;;48.50;;
52438;SDS011;38359;53.150;6.504;2023-04-15T23:26:30;192.75;;;49.55;;
52438;SDS011;38359;53.150;6.504;2023-04-15T23:36:56;167.60;;;48.17;;
52438;SDS011;38359;53.150;6.504;2023-04-15T23:47:21;193.05;;;50.40;;
52438;SDS011;38359;53.150;6.504;2023-04-15T23:57:47;178.25;;;49.78;;
